sensor_id;sensor_type;location;lat;lon;timestamp;P1;durP1;ratioP1;P2;durP2;ratioP2
67041;SDS011;53949;47.790;18.750;2023-07-31T00:00:09;8.50;;;3.33;;
67041;SDS011;53949;47.790;18.750;2023-07-31T00:03:12;3.40;;;2.90;;
67041;SDS011;53949;47.790;18.750;2023-07-31T00:06:16;5.97;;;2.87;;
67041;SDS011;53949;47.790;18.750;2023-07-31T00:09:19;9.13;;;3.00;;
67041;SDS011;53949;47.790;18.750;2023-07-31T00:12:23;3.83;;;3.00;;
67041;SDS011;53949;47.790;18.750;2023-07-31T00:15:27;4.03;;;3.17;;
67041;SDS011;53949;47.790;18.750;2023-07-31T00:18:30;4.60;;;3.17;;
67041;SDS011;53949;47.790;18.750;2023-07-31T00:21:34;4.12;;;3.58;;
67041;SDS011;53949;47.790;18.750;2023-07-31T00:24:38;8.55;;;2.70;;
67041;SDS011;53949;47.790;18.750;2023-07-31T00:27:41;6.22;;;3.62;;
67041;SDS011;53949;47.790;18.750;2023-07-31T00:30:46;4.75;;;3.20;;
67041;SDS011;53949;47.790;18.750;2023-07-31T00:33:50;4.47;;;3.53;;
67041;SDS011;53949;47.790;18.750;2023-07-31T00:36:54;4.65;;;3.40;;
67041;SDS011;53949;47.790;18.750;2023-07-31T00:39:57;5.82;;;3.22;;
67041;SDS011;53949;47.790;18.750;2023-07-31T00:43:01;6.97;;;4.80;;
67041;SDS011;53949;47.790;18.750;2023-07-31T00:46:06;8.18;;;3.50;;
67041;SDS011;53949;47.790;18.750;2023-07-31T00:49:10;4.07;;;3.67;;
67041;SDS011;53949;47.790;18.750;2023-07-31T00:52:14;3.72;;;3.20;;
67041;SDS011;53949;47.790;18.750;2023-07-31T00:55:17;3.85;;;3.45;;
67041;SDS011;53949;47.790;18.750;2023-07-31T00:58:21;4.50;;;3.33;;
67041;SDS011;53949;47.790;18.750;2023-07-31T01:01:25;3.83;;;3.37;;
67041;SDS011;53949;47.790;18.750;2023-07-31T01:04:28;3.92;;;3.30;;
67041;SDS011;53949;47.790;18.750;2023-07-31T01:07:40;6.65;;;3.30;;
67041;SDS011;53949;47.790;18.750;2023-07-31T01:10:54;6.12;;;3.35;;
67041;SDS011;53949;47.790;18.750;2023-07-31T01:13:59;4.47;;;3.78;;
67041;SDS011;53949;47.790;18.750;2023-07-31T01:17:03;3.87;;;3.58;;
67041;SDS011;53949;47.790;18.750;2023-07-31T01:20:20;4.10;;;3.70;;
67041;SDS011;53949;47.790;18.750;2023-07-31T01:23:30;3.85;;;3.55;;
67041;SDS011;53949;47.790;18.750;2023-07-31T01:26:42;5.12;;;4.25;;
67041;SDS011;53949;47.790;18.750;2023-07-31T01:29:51;4.85;;;4.37;;
67041;SDS011;53949;47.790;18.750;2023-07-31T01:32:59;4.40;;;3.83;;
67041;SDS011;53949;47.790;18.750;2023-07-31T01:36:06;4.57;;;3.80;;
67041;SDS011;53949;47.790;18.750;2023-07-31T01:39:10;5.40;;;3.70;;
67041;SDS011;53949;47.790;18.750;2023-07-31T01:42:14;4.18;;;3.55;;
67041;SDS011;53949;47.790;18.750;2023-07-31T01:45:18;4.68;;;4.05;;
67041;SDS011;53949;47.790;18.750;2023-07-31T01:48:21;4.75;;;3.85;;
67041;SDS011;53949;47.790;18.750;2023-07-31T01:51:25;4.62;;;3.42;;
67041;SDS011;53949;47.790;18.750;2023-07-31T01:54:28;6.37;;;3.75;;
67041;SDS011;53949;47.790;18.750;2023-07-31T01:57:32;4.35;;;3.95;;
67041;SDS011;53949;47.790;18.750;2023-07-31T02:00:37;4.28;;;3.87;;
67041;SDS011;53949;47.790;18.750;2023-07-31T02:03:41;6.18;;;3.97;;
67041;SDS011;53949;47.790;18.750;2023-07-31T02:06:45;6.50;;;3.67;;
67041;SDS011;53949;47.790;18.750;2023-07-31T02:09:49;6.55;;;3.65;;
67041;SDS011;53949;47.790;18.750;2023-07-31T02:12:53;6.55;;;4.22;;
67041;SDS011;53949;47.790;18.750;2023-07-31T02:15:57;6.05;;;3.95;;
67041;SDS011;53949;47.790;18.750;2023-07-31T02:19:02;6.28;;;3.80;;
67041;SDS011;53949;47.790;18.750;2023-07-31T02:22:05;5.85;;;4.50;;
67041;SDS011;53949;47.790;18.750;2023-07-31T02:25:09;5.97;;;4.53;;
67041;SDS011;53949;47.790;18.750;2023-07-31T02:28:11;4.87;;;4.35;;
67041;SDS011;53949;47.790;18.750;2023-07-31T02:31:15;6.60;;;5.03;;
67041;SDS011;53949;47.790;18.750;2023-07-31T02:34:17;6.78;;;4.30;;
67041;SDS011;53949;47.790;18.750;2023-07-31T02:37:21;4.97;;;4.10;;
67041;SDS011;53949;47.790;18.750;2023-07-31T02:40:24;7.53;;;4.68;;
67041;SDS011;53949;47.790;18.750;2023-07-31T02:43:27;8.32;;;4.40;;
67041;SDS011;53949;47.790;18.750;2023-07-31T02:46:30;6.32;;;4.72;;
67041;SDS011;53949;47.790;18.750;2023-07-31T02:49:33;9.00;;;4.82;;
67041;SDS011;53949;47.790;18.750;2023-07-31T02:52:35;8.40;;;4.45;;
67041;SDS011;53949;47.790;18.750;2023-07-31T02:55:40;6.30;;;4.50;;
67041;SDS011;53949;47.790;18.750;2023-07-31T02:58:43;6.68;;;5.07;;
67041;SDS011;53949;47.790;18.750;2023-07-31T03:01:47;6.15;;;4.40;;
67041;SDS011;53949;47.790;18.750;2023-07-31T03:04:49;4.35;;;3.87;;
67041;SDS011;53949;47.790;18.750;2023-07-31T03:07:53;4.97;;;4.00;;
67041;SDS011;53949;47.790;18.750;2023-07-31T03:10:58;4.32;;;3.78;;
67041;SDS011;53949;47.790;18.750;2023-07-31T03:14:02;5.50;;;3.95;;
67041;SDS011;53949;47.790;18.750;2023-07-31T03:17:05;5.78;;;4.15;;
67041;SDS011;53949;47.790;18.750;2023-07-31T03:20:09;5.35;;;4.12;;
67041;SDS011;53949;47.790;18.750;2023-07-31T03:23:12;3.67;;;3.37;;
67041;SDS011;53949;47.790;18.750;2023-07-31T03:26:16;5.93;;;3.90;;
67041;SDS011;53949;47.790;18.750;2023-07-31T03:29:19;5.03;;;3.83;;
67041;SDS011;53949;47.790;18.750;2023-07-31T03:32:27;4.22;;;3.30;;
67041;SDS011;53949;47.790;18.750;2023-07-31T03:35:30;4.30;;;3.90;;
67041;SDS011;53949;47.790;18.750;2023-07-31T03:38:34;6.00;;;3.70;;
67041;SDS011;53949;47.790;18.750;2023-07-31T03:41:38;5.22;;;3.80;;
67041;SDS011;53949;47.790;18.750;2023-07-31T03:44:42;8.13;;;3.87;;
67041;SDS011;53949;47.790;18.750;2023-07-31T03:47:45;5.18;;;3.40;;
67041;SDS011;53949;47.790;18.750;2023-07-31T03:50:49;4.47;;;3.12;;
67041;SDS011;53949;47.790;18.750;2023-07-31T03:53:52;2.95;;;2.70;;
67041;SDS011;53949;47.790;18.750;2023-07-31T03:56:56;4.00;;;3.40;;
67041;SDS011;53949;47.790;18.750;2023-07-31T03:59:59;3.05;;;2.80;;
67041;SDS011;53949;47.790;18.750;2023-07-31T04:03:02;3.53;;;3.22;;
67041;SDS011;53949;47.790;18.750;2023-07-31T04:06:06;5.32;;;3.17;;
67041;SDS011;53949;47.790;18.750;2023-07-31T04:09:10;4.20;;;3.33;;
67041;SDS011;53949;47.790;18.750;2023-07-31T04:12:14;5.57;;;3.50;;
67041;SDS011;53949;47.790;18.750;2023-07-31T04:15:17;3.60;;;2.97;;
67041;SDS011;53949;47.790;18.750;2023-07-31T04:18:21;3.28;;;2.97;;
67041;SDS011;53949;47.790;18.750;2023-07-31T04:21:24;5.00;;;3.25;;
67041;SDS011;53949;47.790;18.750;2023-07-31T04:24:28;4.37;;;3.05;;
67041;SDS011;53949;47.790;18.750;2023-07-31T04:27:31;4.57;;;3.37;;
67041;SDS011;53949;47.790;18.750;2023-07-31T04:30:35;5.55;;;3.50;;
67041;SDS011;53949;47.790;18.750;2023-07-31T04:33:39;4.65;;;3.72;;
67041;SDS011;53949;47.790;18.750;2023-07-31T04:36:44;4.37;;;2.65;;
67041;SDS011;53949;47.790;18.750;2023-07-31T04:39:48;3.87;;;3.30;;
67041;SDS011;53949;47.790;18.750;2023-07-31T04:42:51;3.35;;;3.05;;
67041;SDS011;53949;47.790;18.750;2023-07-31T04:45:55;4.72;;;2.80;;
67041;SDS011;53949;47.790;18.750;2023-07-31T04:48:59;5.90;;;3.23;;
67041;SDS011;53949;47.790;18.750;2023-07-31T04:52:02;3.05;;;2.83;;
67041;SDS011;53949;47.790;18.750;2023-07-31T04:55:06;2.30;;;2.10;;
67041;SDS011;53949;47.790;18.750;2023-07-31T04:58:09;4.80;;;2.35;;
67041;SDS011;53949;47.790;18.750;2023-07-31T05:01:13;5.93;;;2.60;;
67041;SDS011;53949;47.790;18.750;2023-07-31T05:04:16;8.23;;;2.30;;
67041;SDS011;53949;47.790;18.750;2023-07-31T05:07:19;3.12;;;2.50;;
67041;SDS011;53949;47.790;18.750;2023-07-31T05:10:23;3.22;;;2.50;;
67041;SDS011;53949;47.790;18.750;2023-07-31T05:13:27;3.65;;;2.40;;
67041;SDS011;53949;47.790;18.750;2023-07-31T05:16:30;2.95;;;1.90;;
67041;SDS011;53949;47.790;18.750;2023-07-31T05:19:34;2.00;;;1.87;;
67041;SDS011;53949;47.790;18.750;2023-07-31T05:22:38;2.97;;;1.83;;
67041;SDS011;53949;47.790;18.750;2023-07-31T05:25:42;2.42;;;2.00;;
67041;SDS011;53949;47.790;18.750;2023-07-31T05:28:47;2.03;;;1.40;;
67041;SDS011;53949;47.790;18.750;2023-07-31T05:31:50;2.30;;;2.10;;
67041;SDS011;53949;47.790;18.750;2023-07-31T05:34:53;3.08;;;2.10;;
67041;SDS011;53949;47.790;18.750;2023-07-31T05:37:57;8.38;;;1.98;;
67041;SDS011;53949;47.790;18.750;2023-07-31T05:41:00;3.28;;;2.00;;
67041;SDS011;53949;47.790;18.750;2023-07-31T05:44:04;2.87;;;1.80;;
67041;SDS011;53949;47.790;18.750;2023-07-31T05:47:07;3.50;;;1.80;;
67041;SDS011;53949;47.790;18.750;2023-07-31T05:50:10;2.53;;;1.83;;
67041;SDS011;53949;47.790;18.750;2023-07-31T05:53:13;2.53;;;1.80;;
67041;SDS011;53949;47.790;18.750;2023-07-31T05:56:17;1.77;;;1.65;;
67041;SDS011;53949;47.790;18.750;2023-07-31T05:59:20;5.00;;;1.58;;
67041;SDS011;53949;47.790;18.750;2023-07-31T06:02:24;2.90;;;1.80;;
67041;SDS011;53949;47.790;18.750;2023-07-31T06:05:27;1.77;;;1.55;;
67041;SDS011;53949;47.790;18.750;2023-07-31T06:08:33;2.58;;;1.25;;
67041;SDS011;53949;47.790;18.750;2023-07-31T06:11:36;1.73;;;1.40;;
67041;SDS011;53949;47.790;18.750;2023-07-31T06:14:39;1.62;;;1.52;;
67041;SDS011;53949;47.790;18.750;2023-07-31T06:17:43;1.60;;;1.50;;
67041;SDS011;53949;47.790;18.750;2023-07-31T06:20:47;2.27;;;1.40;;
67041;SDS011;53949;47.790;18.750;2023-07-31T06:23:50;1.60;;;1.50;;
67041;SDS011;53949;47.790;18.750;2023-07-31T06:26:54;3.55;;;1.75;;
67041;SDS011;53949;47.790;18.750;2023-07-31T06:29:57;4.70;;;1.77;;
67041;SDS011;53949;47.790;18.750;2023-07-31T06:33:00;1.75;;;1.60;;
67041;SDS011;53949;47.790;18.750;2023-07-31T06:36:04;3.03;;;1.40;;
67041;SDS011;53949;47.790;18.750;2023-07-31T06:39:09;2.20;;;1.60;;
67041;SDS011;53949;47.790;18.750;2023-07-31T06:42:12;1.67;;;1.48;;
67041;SDS011;53949;47.790;18.750;2023-07-31T06:45:16;1.50;;;1.37;;
67041;SDS011;53949;47.790;18.750;2023-07-31T06:48:20;3.67;;;1.70;;
67041;SDS011;53949;47.790;18.750;2023-07-31T06:51:23;2.17;;;1.35;;
67041;SDS011;53949;47.790;18.750;2023-07-31T06:54:26;2.75;;;1.48;;
67041;SDS011;53949;47.790;18.750;2023-07-31T06:57:30;2.85;;;1.30;;
67041;SDS011;53949;47.790;18.750;2023-07-31T07:00:33;4.37;;;1.60;;
67041;SDS011;53949;47.790;18.750;2023-07-31T07:03:37;2.97;;;1.48;;
67041;SDS011;53949;47.790;18.750;2023-07-31T07:06:41;3.12;;;1.23;;
67041;SDS011;53949;47.790;18.750;2023-07-31T07:09:45;1.98;;;1.42;;
67041;SDS011;53949;47.790;18.750;2023-07-31T07:12:50;4.97;;;1.50;;
67041;SDS011;53949;47.790;18.750;2023-07-31T07:15:53;2.10;;;1.40;;
67041;SDS011;53949;47.790;18.750;2023-07-31T07:18:57;2.17;;;1.40;;
67041;SDS011;53949;47.790;18.750;2023-07-31T07:22:06;1.77;;;1.45;;
67041;SDS011;53949;47.790;18.750;2023-07-31T07:25:10;2.85;;;1.67;;
67041;SDS011;53949;47.790;18.750;2023-07-31T07:28:13;2.47;;;1.50;;
67041;SDS011;53949;47.790;18.750;2023-07-31T07:31:17;3.95;;;1.30;;
67041;SDS011;53949;47.790;18.750;2023-07-31T07:34:25;1.60;;;1.50;;
67041;SDS011;53949;47.790;18.750;2023-07-31T07:37:29;3.47;;;1.42;;
67041;SDS011;53949;47.790;18.750;2023-07-31T07:40:38;5.97;;;1.37;;
67041;SDS011;53949;47.790;18.750;2023-07-31T07:43:46;1.67;;;1.33;;
67041;SDS011;53949;47.790;18.750;2023-07-31T07:46:49;3.47;;;1.80;;
67041;SDS011;53949;47.790;18.750;2023-07-31T07:49:53;4.15;;;1.50;;
67041;SDS011;53949;47.790;18.750;2023-07-31T07:52:56;2.70;;;1.50;;
67041;SDS011;53949;47.790;18.750;2023-07-31T07:55:59;5.15;;;1.40;;
67041;SDS011;53949;47.790;18.750;2023-07-31T07:59:02;2.45;;;1.45;;
67041;SDS011;53949;47.790;18.750;2023-07-31T08:02:12;1.45;;;1.35;;
67041;SDS011;53949;47.790;18.750;2023-07-31T08:05:16;5.47;;;1.60;;
67041;SDS011;53949;47.790;18.750;2023-07-31T08:08:20;2.97;;;1.60;;
67041;SDS011;53949;47.790;18.750;2023-07-31T08:11:24;2.00;;;1.60;;
67041;SDS011;53949;47.790;18.750;2023-07-31T08:14:27;4.12;;;2.10;;
67041;SDS011;53949;47.790;18.750;2023-07-31T08:17:34;3.75;;;1.70;;
67041;SDS011;53949;47.790;18.750;2023-07-31T08:20:38;2.72;;;1.83;;
67041;SDS011;53949;47.790;18.750;2023-07-31T08:23:41;2.70;;;1.77;;
67041;SDS011;53949;47.790;18.750;2023-07-31T08:26:44;3.50;;;1.50;;
67041;SDS011;53949;47.790;18.750;2023-07-31T08:29:48;2.85;;;1.58;;
67041;SDS011;53949;47.790;18.750;2023-07-31T08:32:51;3.05;;;1.73;;
67041;SDS011;53949;47.790;18.750;2023-07-31T08:35:56;3.62;;;1.75;;
67041;SDS011;53949;47.790;18.750;2023-07-31T08:39:00;2.70;;;1.48;;
67041;SDS011;53949;47.790;18.750;2023-07-31T08:42:07;2.67;;;1.40;;
67041;SDS011;53949;47.790;18.750;2023-07-31T08:45:15;6.20;;;1.67;;
67041;SDS011;53949;47.790;18.750;2023-07-31T08:48:22;3.42;;;1.50;;
67041;SDS011;53949;47.790;18.750;2023-07-31T08:51:27;3.05;;;1.48;;
67041;SDS011;53949;47.790;18.750;2023-07-31T08:54:31;3.67;;;1.50;;
67041;SDS011;53949;47.790;18.750;2023-07-31T08:57:36;3.85;;;1.40;;
67041;SDS011;53949;47.790;18.750;2023-07-31T09:00:41;2.12;;;1.33;;
67041;SDS011;53949;47.790;18.750;2023-07-31T09:03:47;3.22;;;1.42;;
67041;SDS011;53949;47.790;18.750;2023-07-31T09:06:52;2.17;;;1.23;;
67041;SDS011;53949;47.790;18.750;2023-07-31T09:10:01;6.32;;;1.70;;
67041;SDS011;53949;47.790;18.750;2023-07-31T09:13:06;2.83;;;1.25;;
67041;SDS011;53949;47.790;18.750;2023-07-31T09:16:14;9.45;;;2.28;;
67041;SDS011;53949;47.790;18.750;2023-07-31T09:19:24;3.80;;;1.45;;
67041;SDS011;53949;47.790;18.750;2023-07-31T09:22:32;3.60;;;1.50;;
67041;SDS011;53949;47.790;18.750;2023-07-31T09:25:39;5.57;;;1.23;;
67041;SDS011;53949;47.790;18.750;2023-07-31T09:31:46;1.75;;;1.20;;
67041;SDS011;53949;47.790;18.750;2023-07-31T09:34:50;3.12;;;1.73;;
67041;SDS011;53949;47.790;18.750;2023-07-31T09:37:54;4.18;;;1.30;;
67041;SDS011;53949;47.790;18.750;2023-07-31T09:40:59;4.40;;;1.40;;
67041;SDS011;53949;47.790;18.750;2023-07-31T09:44:03;2.42;;;1.20;;
67041;SDS011;53949;47.790;18.750;2023-07-31T09:47:06;2.12;;;1.67;;
67041;SDS011;53949;47.790;18.750;2023-07-31T09:50:10;2.33;;;1.15;;
67041;SDS011;53949;47.790;18.750;2023-07-31T09:53:13;3.33;;;1.20;;
67041;SDS011;53949;47.790;18.750;2023-07-31T09:56:17;3.37;;;1.48;;
67041;SDS011;53949;47.790;18.750;2023-07-31T09:59:22;3.22;;;1.40;;
67041;SDS011;53949;47.790;18.750;2023-07-31T10:05:31;2.12;;;1.30;;
67041;SDS011;53949;47.790;18.750;2023-07-31T10:08:37;3.22;;;1.15;;
67041;SDS011;53949;47.790;18.750;2023-07-31T10:11:42;1.77;;;1.15;;
67041;SDS011;53949;47.790;18.750;2023-07-31T10:14:47;2.58;;;1.30;;
67041;SDS011;53949;47.790;18.750;2023-07-31T10:17:50;2.20;;;1.00;;
67041;SDS011;53949;47.790;18.750;2023-07-31T10:20:55;3.20;;;1.10;;
67041;SDS011;53949;47.790;18.750;2023-07-31T10:23:58;1.45;;;1.00;;
67041;SDS011;53949;47.790;18.750;2023-07-31T10:27:01;4.32;;;0.98;;
67041;SDS011;53949;47.790;18.750;2023-07-31T10:33:14;4.00;;;1.00;;
67041;SDS011;53949;47.790;18.750;2023-07-31T10:36:18;1.37;;;1.00;;
67041;SDS011;53949;47.790;18.750;2023-07-31T10:39:35;6.65;;;1.58;;
67041;SDS011;53949;47.790;18.750;2023-07-31T10:45:55;1.58;;;1.00;;
67041;SDS011;53949;47.790;18.750;2023-07-31T10:49:00;1.67;;;0.98;;
67041;SDS011;53949;47.790;18.750;2023-07-31T10:52:04;4.75;;;1.20;;
67041;SDS011;53949;47.790;18.750;2023-07-31T10:58:30;3.05;;;1.10;;
67041;SDS011;53949;47.790;18.750;2023-07-31T11:01:50;3.10;;;1.65;;
67041;SDS011;53949;47.790;18.750;2023-07-31T11:05:10;2.97;;;1.02;;
67041;SDS011;53949;47.790;18.750;2023-07-31T11:11:21;2.19;;;1.13;;
67041;SDS011;53949;47.790;18.750;2023-07-31T11:14:25;4.13;;;1.30;;
67041;SDS011;53949;47.790;18.750;2023-07-31T11:17:29;5.03;;;1.30;;
67041;SDS011;53949;47.790;18.750;2023-07-31T11:20:32;2.85;;;1.33;;
67041;SDS011;53949;47.790;18.750;2023-07-31T11:23:37;2.35;;;1.12;;
67041;SDS011;53949;47.790;18.750;2023-07-31T11:29:53;1.52;;;0.95;;
67041;SDS011;53949;47.790;18.750;2023-07-31T11:32:57;2.67;;;1.08;;
67041;SDS011;53949;47.790;18.750;2023-07-31T11:36:01;2.83;;;1.12;;
67041;SDS011;53949;47.790;18.750;2023-07-31T11:39:06;2.67;;;1.30;;
67041;SDS011;53949;47.790;18.750;2023-07-31T11:42:10;1.25;;;0.98;;
67041;SDS011;53949;47.790;18.750;2023-07-31T11:45:14;4.28;;;0.90;;
67041;SDS011;53949;47.790;18.750;2023-07-31T11:51:25;2.20;;;0.98;;
67041;SDS011;53949;47.790;18.750;2023-07-31T11:54:30;2.67;;;1.10;;
67041;SDS011;53949;47.790;18.750;2023-07-31T11:57:34;3.83;;;1.00;;
67041;SDS011;53949;47.790;18.750;2023-07-31T12:00:38;4.15;;;1.20;;
67041;SDS011;53949;47.790;18.750;2023-07-31T12:03:43;2.25;;;0.95;;
67041;SDS011;53949;47.790;18.750;2023-07-31T12:06:48;4.25;;;1.00;;
67041;SDS011;53949;47.790;18.750;2023-07-31T12:09:54;2.55;;;0.95;;
67041;SDS011;53949;47.790;18.750;2023-07-31T12:16:07;0.80;;;0.80;;
67041;SDS011;53949;47.790;18.750;2023-07-31T12:19:10;1.87;;;0.90;;
67041;SDS011;53949;47.790;18.750;2023-07-31T12:22:15;2.45;;;1.23;;
67041;SDS011;53949;47.790;18.750;2023-07-31T12:28:23;3.25;;;1.17;;
67041;SDS011;53949;47.790;18.750;2023-07-31T12:31:27;2.20;;;1.00;;
67041;SDS011;53949;47.790;18.750;2023-07-31T12:34:41;2.28;;;1.10;;
67041;SDS011;53949;47.790;18.750;2023-07-31T12:37:45;3.55;;;1.50;;
67041;SDS011;53949;47.790;18.750;2023-07-31T12:40:48;2.65;;;1.55;;
67041;SDS011;53949;47.790;18.750;2023-07-31T12:43:51;1.50;;;1.12;;
67041;SDS011;53949;47.790;18.750;2023-07-31T12:46:55;2.87;;;1.03;;
67041;SDS011;53949;47.790;18.750;2023-07-31T12:49:59;2.90;;;1.15;;
67041;SDS011;53949;47.790;18.750;2023-07-31T12:53:04;1.65;;;1.20;;
67041;SDS011;53949;47.790;18.750;2023-07-31T12:56:07;1.75;;;1.00;;
67041;SDS011;53949;47.790;18.750;2023-07-31T12:59:11;2.35;;;0.93;;
67041;SDS011;53949;47.790;18.750;2023-07-31T13:02:14;1.87;;;1.03;;
67041;SDS011;53949;47.790;18.750;2023-07-31T13:05:22;1.50;;;1.20;;
67041;SDS011;53949;47.790;18.750;2023-07-31T13:08:25;3.33;;;1.23;;
67041;SDS011;53949;47.790;18.750;2023-07-31T13:11:29;2.05;;;1.10;;
67041;SDS011;53949;47.790;18.750;2023-07-31T13:14:32;3.05;;;1.10;;
67041;SDS011;53949;47.790;18.750;2023-07-31T13:17:36;1.87;;;1.02;;
67041;SDS011;53949;47.790;18.750;2023-07-31T13:20:40;3.03;;;1.17;;
67041;SDS011;53949;47.790;18.750;2023-07-31T13:23:43;4.00;;;1.35;;
67041;SDS011;53949;47.790;18.750;2023-07-31T13:26:47;3.08;;;1.08;;
67041;SDS011;53949;47.790;18.750;2023-07-31T13:29:50;2.78;;;1.20;;
67041;SDS011;53949;47.790;18.750;2023-07-31T13:35:58;2.28;;;0.85;;
67041;SDS011;53949;47.790;18.750;2023-07-31T13:39:01;4.82;;;1.27;;
67041;SDS011;53949;47.790;18.750;2023-07-31T13:42:04;3.10;;;1.00;;
67041;SDS011;53949;47.790;18.750;2023-07-31T13:45:14;3.67;;;0.93;;
67041;SDS011;53949;47.790;18.750;2023-07-31T13:48:18;1.48;;;0.90;;
67041;SDS011;53949;47.790;18.750;2023-07-31T13:51:21;1.98;;;0.93;;
67041;SDS011;53949;47.790;18.750;2023-07-31T13:54:25;3.90;;;0.90;;
67041;SDS011;53949;47.790;18.750;2023-07-31T13:57:32;3.05;;;0.90;;
67041;SDS011;53949;47.790;18.750;2023-07-31T14:00:36;2.97;;;1.20;;
67041;SDS011;53949;47.790;18.750;2023-07-31T14:03:40;4.07;;;1.33;;
67041;SDS011;53949;47.790;18.750;2023-07-31T14:06:45;4.05;;;1.25;;
67041;SDS011;53949;47.790;18.750;2023-07-31T14:09:51;1.80;;;1.00;;
67041;SDS011;53949;47.790;18.750;2023-07-31T14:12:54;2.78;;;1.15;;
67041;SDS011;53949;47.790;18.750;2023-07-31T14:15:58;1.27;;;0.85;;
67041;SDS011;53949;47.790;18.750;2023-07-31T14:19:03;1.60;;;1.00;;
67041;SDS011;53949;47.790;18.750;2023-07-31T14:22:07;2.28;;;1.00;;
67041;SDS011;53949;47.790;18.750;2023-07-31T14:25:13;2.47;;;0.95;;
67041;SDS011;53949;47.790;18.750;2023-07-31T14:28:16;1.92;;;0.93;;
67041;SDS011;53949;47.790;18.750;2023-07-31T14:31:19;5.13;;;1.00;;
67041;SDS011;53949;47.790;18.750;2023-07-31T14:34:23;1.27;;;1.02;;
67041;SDS011;53949;47.790;18.750;2023-07-31T14:37:26;4.97;;;3.53;;
67041;SDS011;53949;47.790;18.750;2023-07-31T14:40:30;3.30;;;1.37;;
67041;SDS011;53949;47.790;18.750;2023-07-31T14:46:37;2.80;;;1.20;;
67041;SDS011;53949;47.790;18.750;2023-07-31T14:49:41;3.05;;;2.45;;
67041;SDS011;53949;47.790;18.750;2023-07-31T14:52:45;3.28;;;1.23;;
67041;SDS011;53949;47.790;18.750;2023-07-31T14:55:48;15.05;;;9.80;;
67041;SDS011;53949;47.790;18.750;2023-07-31T14:58:51;3.65;;;1.15;;
67041;SDS011;53949;47.790;18.750;2023-07-31T15:01:54;7.80;;;3.90;;
67041;SDS011;53949;47.790;18.750;2023-07-31T15:05:00;2.28;;;1.80;;
67041;SDS011;53949;47.790;18.750;2023-07-31T15:08:03;4.22;;;3.33;;
67041;SDS011;53949;47.790;18.750;2023-07-31T15:11:09;2.10;;;1.70;;
67041;SDS011;53949;47.790;18.750;2023-07-31T15:14:13;1.62;;;1.20;;
67041;SDS011;53949;47.790;18.750;2023-07-31T15:17:19;3.70;;;2.33;;
67041;SDS011;53949;47.790;18.750;2023-07-31T15:20:23;2.97;;;1.10;;
67041;SDS011;53949;47.790;18.750;2023-07-31T15:26:29;2.15;;;1.45;;
67041;SDS011;53949;47.790;18.750;2023-07-31T15:32:39;2.33;;;1.05;;
67041;SDS011;53949;47.790;18.750;2023-07-31T15:38:46;1.77;;;1.25;;
67041;SDS011;53949;47.790;18.750;2023-07-31T15:41:53;1.85;;;1.12;;
67041;SDS011;53949;47.790;18.750;2023-07-31T15:44:57;2.28;;;1.27;;
67041;SDS011;53949;47.790;18.750;2023-07-31T15:48:00;2.83;;;1.15;;
67041;SDS011;53949;47.790;18.750;2023-07-31T15:51:03;3.65;;;1.40;;
67041;SDS011;53949;47.790;18.750;2023-07-31T15:54:07;2.78;;;1.00;;
67041;SDS011;53949;47.790;18.750;2023-07-31T15:57:10;4.45;;;1.37;;
67041;SDS011;53949;47.790;18.750;2023-07-31T16:00:13;3.05;;;1.17;;
67041;SDS011;53949;47.790;18.750;2023-07-31T16:03:17;2.65;;;1.15;;
67041;SDS011;53949;47.790;18.750;2023-07-31T16:06:22;3.25;;;1.33;;
67041;SDS011;53949;47.790;18.750;2023-07-31T16:09:26;1.77;;;1.20;;
67041;SDS011;53949;47.790;18.750;2023-07-31T16:12:30;1.12;;;1.00;;
67041;SDS011;53949;47.790;18.750;2023-07-31T16:15:34;3.10;;;1.23;;
67041;SDS011;53949;47.790;18.750;2023-07-31T16:18:37;5.47;;;1.20;;
67041;SDS011;53949;47.790;18.750;2023-07-31T16:21:41;2.60;;;1.23;;
67041;SDS011;53949;47.790;18.750;2023-07-31T16:24:44;4.47;;;1.30;;
67041;SDS011;53949;47.790;18.750;2023-07-31T16:27:48;4.43;;;1.33;;
67041;SDS011;53949;47.790;18.750;2023-07-31T16:30:51;3.42;;;1.15;;
67041;SDS011;53949;47.790;18.750;2023-07-31T16:33:54;2.28;;;1.52;;
67041;SDS011;53949;47.790;18.750;2023-07-31T16:36:58;3.65;;;2.60;;
67041;SDS011;53949;47.790;18.750;2023-07-31T16:40:01;4.62;;;3.25;;
67041;SDS011;53949;47.790;18.750;2023-07-31T16:46:10;2.25;;;1.10;;
67041;SDS011;53949;47.790;18.750;2023-07-31T16:49:13;5.23;;;1.23;;
67041;SDS011;53949;47.790;18.750;2023-07-31T16:52:16;1.75;;;0.93;;
67041;SDS011;53949;47.790;18.750;2023-07-31T16:55:20;3.17;;;0.98;;
67041;SDS011;53949;47.790;18.750;2023-07-31T16:58:26;0.98;;;0.90;;
67041;SDS011;53949;47.790;18.750;2023-07-31T17:01:29;2.50;;;1.23;;
67041;SDS011;53949;47.790;18.750;2023-07-31T17:04:35;2.85;;;1.10;;
67041;SDS011;53949;47.790;18.750;2023-07-31T17:07:40;5.45;;;2.17;;
67041;SDS011;53949;47.790;18.750;2023-07-31T17:10:44;2.58;;;0.93;;
67041;SDS011;53949;47.790;18.750;2023-07-31T17:13:47;4.07;;;1.15;;
67041;SDS011;53949;47.790;18.750;2023-07-31T17:16:51;5.05;;;2.75;;
67041;SDS011;53949;47.790;18.750;2023-07-31T17:19:55;6.55;;;5.05;;
67041;SDS011;53949;47.790;18.750;2023-07-31T17:22:59;4.00;;;1.10;;
67041;SDS011;53949;47.790;18.750;2023-07-31T17:26:02;1.95;;;1.10;;
67041;SDS011;53949;47.790;18.750;2023-07-31T17:29:06;1.90;;;1.00;;
67041;SDS011;53949;47.790;18.750;2023-07-31T17:32:10;3.85;;;1.25;;
67041;SDS011;53949;47.790;18.750;2023-07-31T17:35:14;3.50;;;1.15;;
67041;SDS011;53949;47.790;18.750;2023-07-31T17:38:18;6.43;;;1.20;;
67041;SDS011;53949;47.790;18.750;2023-07-31T17:41:22;1.98;;;1.20;;
67041;SDS011;53949;47.790;18.750;2023-07-31T17:44:30;4.60;;;1.42;;
67041;SDS011;53949;47.790;18.750;2023-07-31T17:47:33;2.17;;;1.20;;
67041;SDS011;53949;47.790;18.750;2023-07-31T17:50:37;2.08;;;0.95;;
67041;SDS011;53949;47.790;18.750;2023-07-31T17:53:42;2.80;;;1.40;;
67041;SDS011;53949;47.790;18.750;2023-07-31T17:56:46;3.08;;;1.42;;
67041;SDS011;53949;47.790;18.750;2023-07-31T17:59:50;2.12;;;1.25;;
67041;SDS011;53949;47.790;18.750;2023-07-31T18:06:25;3.62;;;1.10;;
67041;SDS011;53949;47.790;18.750;2023-07-31T18:12:33;2.72;;;1.15;;
67041;SDS011;53949;47.790;18.750;2023-07-31T18:18:41;1.65;;;1.00;;
67041;SDS011;53949;47.790;18.750;2023-07-31T18:24:48;4.87;;;1.30;;
67041;SDS011;53949;47.790;18.750;2023-07-31T18:27:55;2.20;;;1.42;;
67041;SDS011;53949;47.790;18.750;2023-07-31T18:30:59;3.35;;;1.23;;
67041;SDS011;53949;47.790;18.750;2023-07-31T18:34:03;2.05;;;1.20;;
67041;SDS011;53949;47.790;18.750;2023-07-31T18:37:16;2.37;;;1.40;;
67041;SDS011;53949;47.790;18.750;2023-07-31T18:40:20;1.30;;;1.20;;
67041;SDS011;53949;47.790;18.750;2023-07-31T18:43:24;1.37;;;1.10;;
67041;SDS011;53949;47.790;18.750;2023-07-31T18:49:33;2.83;;;1.15;;
67041;SDS011;53949;47.790;18.750;2023-07-31T18:52:36;2.95;;;1.15;;
67041;SDS011;53949;47.790;18.750;2023-07-31T18:55:43;2.00;;;1.20;;
67041;SDS011;53949;47.790;18.750;2023-07-31T18:58:47;1.77;;;0.90;;
67041;SDS011;53949;47.790;18.750;2023-07-31T19:01:53;4.30;;;1.20;;
67041;SDS011;53949;47.790;18.750;2023-07-31T19:04:57;2.10;;;1.10;;
67041;SDS011;53949;47.790;18.750;2023-07-31T19:08:01;2.10;;;1.20;;
67041;SDS011;53949;47.790;18.750;2023-07-31T19:11:08;2.97;;;1.35;;
67041;SDS011;53949;47.790;18.750;2023-07-31T19:14:34;2.55;;;1.25;;
67041;SDS011;53949;47.790;18.750;2023-07-31T19:17:38;3.72;;;1.27;;